sensor_id;sensor_type;location;lat;lon;timestamp;P1;durP1;ratioP1;P2;durP2;ratioP2
9304;SDS011;4690;52.422;13.486;2024-02-21T00:10:19;18.40;;;7.13;;
9304;SDS011;4690;52.422;13.486;2024-02-21T00:12:45;25.73;;;7.87;;
9304;SDS011;4690;52.422;13.486;2024-02-21T00:15:11;16.73;;;7.03;;
9304;SDS011;4690;52.422;13.486;2024-02-21T00:17:37;17.60;;;7.20;;
9304;SDS011;4690;52.422;13.486;2024-02-21T00:20:03;17.83;;;7.10;;
9304;SDS011;4690;52.422;13.486;2024-02-21T00:22:29;16.33;;;6.67;;
9304;SDS011;4690;52.422;13.486;2024-02-21T00:24:56;19.57;;;7.40;;
9304;SDS011;4690;52.422;13.486;2024-02-21T00:27:23;20.03;;;6.70;;
9304;SDS011;4690;52.422;13.486;2024-02-21T00:29:49;17.00;;;6.53;;
9304;SDS011;4690;52.422;13.486;2024-02-21T00:32:15;14.47;;;6.13;;
9304;SDS011;4690;52.422;13.486;2024-02-21T00:34:41;18.53;;;7.17;;
9304;SDS011;4690;52.422;13.486;2024-02-21T00:37:06;22.60;;;6.60;;
9304;SDS011;4690;52.422;13.486;2024-02-21T00:39:32;15.23;;;5.83;;
9304;SDS011;4690;52.422;13.486;2024-02-21T00:41:58;16.00;;;6.13;;
9304;SDS011;4690;52.422;13.486;2024-02-21T00:44:23;14.63;;;6.27;;
9304;SDS011;4690;52.422;13.486;2024-02-21T00:46:49;17.60;;;6.30;;
9304;SDS011;4690;52.422;13.486;2024-02-21T00:49:15;17.67;;;6.47;;
9304;SDS011;4690;52.422;13.486;2024-02-21T00:51:41;17.20;;;6.57;;
9304;SDS011;4690;52.422;13.486;2024-02-21T00:54:07;14.37;;;6.00;;
9304;SDS011;4690;52.422;13.486;2024-02-21T00:56:32;16.17;;;6.73;;
9304;SDS011;4690;52.422;13.486;2024-02-21T00:58:58;17.83;;;6.50;;
9304;SDS011;4690;52.422;13.486;2024-02-21T01:01:24;17.57;;;6.23;;
9304;SDS011;4690;52.422;13.486;2024-02-21T01:03:51;15.67;;;6.17;;
9304;SDS011;4690;52.422;13.486;2024-02-21T01:06:19;14.90;;;6.50;;
9304;SDS011;4690;52.422;13.486;2024-02-21T01:08:48;16.23;;;6.57;;
9304;SDS011;4690;52.422;13.486;2024-02-21T01:11:15;13.97;;;6.43;;
9304;SDS011;4690;52.422;13.486;2024-02-21T01:13:41;21.03;;;6.47;;
9304;SDS011;4690;52.422;13.486;2024-02-21T01:16:07;18.97;;;6.50;;
9304;SDS011;4690;52.422;13.486;2024-02-21T01:18:33;14.57;;;6.37;;
9304;SDS011;4690;52.422;13.486;2024-02-21T01:20:59;19.43;;;6.23;;
9304;SDS011;4690;52.422;13.486;2024-02-21T01:23:25;15.27;;;6.17;;
9304;SDS011;4690;52.422;13.486;2024-02-21T01:25:51;16.17;;;6.80;;
9304;SDS011;4690;52.422;13.486;2024-02-21T01:28:17;19.73;;;6.63;;
9304;SDS011;4690;52.422;13.486;2024-02-21T01:30:43;15.83;;;6.60;;
9304;SDS011;4690;52.422;13.486;2024-02-21T01:33:09;13.93;;;5.57;;
9304;SDS011;4690;52.422;13.486;2024-02-21T01:35:35;17.70;;;6.87;;
9304;SDS011;4690;52.422;13.486;2024-02-21T01:38:02;17.17;;;6.63;;
9304;SDS011;4690;52.422;13.486;2024-02-21T01:40:28;16.07;;;6.40;;
9304;SDS011;4690;52.422;13.486;2024-02-21T01:42:55;15.63;;;6.40;;
9304;SDS011;4690;52.422;13.486;2024-02-21T01:45:21;17.43;;;6.13;;
9304;SDS011;4690;52.422;13.486;2024-02-21T01:47:47;14.73;;;6.07;;
9304;SDS011;4690;52.422;13.486;2024-02-21T01:50:14;13.00;;;5.70;;
9304;SDS011;4690;52.422;13.486;2024-02-21T01:52:42;17.00;;;6.37;;
9304;SDS011;4690;52.422;13.486;2024-02-21T01:55:14;17.50;;;6.43;;
9304;SDS011;4690;52.422;13.486;2024-02-21T01:57:41;15.50;;;5.93;;
9304;SDS011;4690;52.422;13.486;2024-02-21T02:00:11;11.97;;;5.40;;
9304;SDS011;4690;52.422;13.486;2024-02-21T02:02:38;14.70;;;5.77;;
9304;SDS011;4690;52.422;13.486;2024-02-21T02:05:07;14.60;;;6.20;;
9304;SDS011;4690;52.422;13.486;2024-02-21T02:07:34;13.73;;;5.80;;
9304;SDS011;4690;52.422;13.486;2024-02-21T02:10:00;13.30;;;5.43;;
9304;SDS011;4690;52.422;13.486;2024-02-21T02:12:25;18.30;;;6.17;;
9304;SDS011;4690;52.422;13.486;2024-02-21T02:15:01;16.70;;;6.10;;
9304;SDS011;4690;52.422;13.486;2024-02-21T02:17:31;16.37;;;5.50;;
9304;SDS011;4690;52.422;13.486;2024-02-21T02:19:57;14.70;;;6.03;;
9304;SDS011;4690;52.422;13.486;2024-02-21T02:22:27;17.83;;;5.90;;
9304;SDS011;4690;52.422;13.486;2024-02-21T02:24:54;15.43;;;6.17;;
9304;SDS011;4690;52.422;13.486;2024-02-21T02:27:20;16.97;;;6.43;;
9304;SDS011;4690;52.422;13.486;2024-02-21T02:29:48;15.87;;;5.90;;
9304;SDS011;4690;52.422;13.486;2024-02-21T02:32:14;17.57;;;6.87;;
9304;SDS011;4690;52.422;13.486;2024-02-21T02:34:40;18.10;;;6.80;;
9304;SDS011;4690;52.422;13.486;2024-02-21T02:37:05;14.47;;;6.63;;
9304;SDS011;4690;52.422;13.486;2024-02-21T02:39:31;19.90;;;7.30;;
9304;SDS011;4690;52.422;13.486;2024-02-21T02:41:57;18.73;;;7.33;;
9304;SDS011;4690;52.422;13.486;2024-02-21T02:44:23;18.83;;;7.17;;
9304;SDS011;4690;52.422;13.486;2024-02-21T02:46:49;19.33;;;7.43;;
9304;SDS011;4690;52.422;13.486;2024-02-21T02:49:14;19.33;;;6.90;;
9304;SDS011;4690;52.422;13.486;2024-02-21T02:51:43;18.43;;;7.20;;
9304;SDS011;4690;52.422;13.486;2024-02-21T02:54:09;21.83;;;7.40;;
9304;SDS011;4690;52.422;13.486;2024-02-21T02:56:37;17.77;;;6.83;;
9304;SDS011;4690;52.422;13.486;2024-02-21T02:59:03;20.00;;;7.90;;
9304;SDS011;4690;52.422;13.486;2024-02-21T03:01:28;22.30;;;8.33;;
9304;SDS011;4690;52.422;13.486;2024-02-21T03:03:54;24.17;;;8.60;;
9304;SDS011;4690;52.422;13.486;2024-02-21T03:06:20;30.40;;;9.23;;
9304;SDS011;4690;52.422;13.486;2024-02-21T03:08:45;25.90;;;8.83;;
9304;SDS011;4690;52.422;13.486;2024-02-21T03:11:11;30.40;;;9.90;;
9304;SDS011;4690;52.422;13.486;2024-02-21T03:13:37;30.00;;;9.60;;
9304;SDS011;4690;52.422;13.486;2024-02-21T03:16:03;18.57;;;8.73;;
9304;SDS011;4690;52.422;13.486;2024-02-21T03:18:29;27.07;;;8.97;;
9304;SDS011;4690;52.422;13.486;2024-02-21T03:20:55;25.83;;;8.97;;
9304;SDS011;4690;52.422;13.486;2024-02-21T03:23:20;22.70;;;9.30;;
9304;SDS011;4690;52.422;13.486;2024-02-21T03:25:46;29.90;;;10.53;;
9304;SDS011;4690;52.422;13.486;2024-02-21T03:28:12;23.60;;;9.17;;
9304;SDS011;4690;52.422;13.486;2024-02-21T03:30:38;27.03;;;9.97;;
9304;SDS011;4690;52.422;13.486;2024-02-21T03:33:03;20.97;;;9.27;;
9304;SDS011;4690;52.422;13.486;2024-02-21T03:35:29;27.90;;;9.67;;
9304;SDS011;4690;52.422;13.486;2024-02-21T03:37:55;23.47;;;10.00;;
9304;SDS011;4690;52.422;13.486;2024-02-21T03:40:21;32.50;;;10.43;;
9304;SDS011;4690;52.422;13.486;2024-02-21T03:42:47;26.07;;;9.87;;
9304;SDS011;4690;52.422;13.486;2024-02-21T03:45:12;32.20;;;10.30;;
9304;SDS011;4690;52.422;13.486;2024-02-21T03:47:38;28.23;;;10.67;;
9304;SDS011;4690;52.422;13.486;2024-02-21T03:50:05;26.57;;;10.13;;
9304;SDS011;4690;52.422;13.486;2024-02-21T03:52:31;23.50;;;10.10;;
9304;SDS011;4690;52.422;13.486;2024-02-21T03:54:57;25.40;;;10.43;;
9304;SDS011;4690;52.422;13.486;2024-02-21T03:57:23;24.90;;;9.93;;
9304;SDS011;4690;52.422;13.486;2024-02-21T03:59:51;33.40;;;12.07;;
9304;SDS011;4690;52.422;13.486;2024-02-21T04:02:17;27.63;;;11.53;;
9304;SDS011;4690;52.422;13.486;2024-02-21T04:04:43;27.03;;;10.67;;
9304;SDS011;4690;52.422;13.486;2024-02-21T04:07:13;26.97;;;10.67;;
9304;SDS011;4690;52.422;13.486;2024-02-21T04:09:39;25.70;;;9.97;;
9304;SDS011;4690;52.422;13.486;2024-02-21T04:12:08;31.13;;;10.70;;
9304;SDS011;4690;52.422;13.486;2024-02-21T04:14:34;24.37;;;10.10;;
9304;SDS011;4690;52.422;13.486;2024-02-21T04:17:00;25.43;;;10.43;;
9304;SDS011;4690;52.422;13.486;2024-02-21T04:19:26;28.70;;;11.37;;
9304;SDS011;4690;52.422;13.486;2024-02-21T04:21:52;24.20;;;10.60;;
9304;SDS011;4690;52.422;13.486;2024-02-21T04:24:18;24.70;;;10.37;;
9304;SDS011;4690;52.422;13.486;2024-02-21T04:26:43;29.93;;;11.83;;
9304;SDS011;4690;52.422;13.486;2024-02-21T04:29:09;30.53;;;11.63;;
9304;SDS011;4690;52.422;13.486;2024-02-21T04:31:35;26.70;;;10.70;;
9304;SDS011;4690;52.422;13.486;2024-02-21T04:34:01;36.93;;;11.47;;
9304;SDS011;4690;52.422;13.486;2024-02-21T04:36:28;23.77;;;10.43;;
9304;SDS011;4690;52.422;13.486;2024-02-21T04:38:53;30.60;;;11.80;;
9304;SDS011;4690;52.422;13.486;2024-02-21T04:41:19;33.20;;;11.47;;
9304;SDS011;4690;52.422;13.486;2024-02-21T04:43:48;27.57;;;10.77;;
9304;SDS011;4690;52.422;13.486;2024-02-21T04:46:14;28.97;;;10.63;;
9304;SDS011;4690;52.422;13.486;2024-02-21T04:48:40;27.30;;;10.80;;
9304;SDS011;4690;52.422;13.486;2024-02-21T04:51:06;30.30;;;11.17;;
9304;SDS011;4690;52.422;13.486;2024-02-21T04:53:32;37.03;;;12.40;;
9304;SDS011;4690;52.422;13.486;2024-02-21T04:55:57;28.70;;;10.40;;
9304;SDS011;4690;52.422;13.486;2024-02-21T04:58:23;26.67;;;10.43;;
9304;SDS011;4690;52.422;13.486;2024-02-21T05:00:50;36.43;;;11.80;;
9304;SDS011;4690;52.422;13.486;2024-02-21T05:03:16;26.83;;;10.17;;
9304;SDS011;4690;52.422;13.486;2024-02-21T05:05:42;29.40;;;10.60;;
9304;SDS011;4690;52.422;13.486;2024-02-21T05:08:09;28.37;;;10.47;;
9304;SDS011;4690;52.422;13.486;2024-02-21T05:10:35;29.47;;;11.57;;
9304;SDS011;4690;52.422;13.486;2024-02-21T05:13:01;31.23;;;11.17;;
9304;SDS011;4690;52.422;13.486;2024-02-21T05:15:26;24.37;;;10.60;;
9304;SDS011;4690;52.422;13.486;2024-02-21T05:17:52;22.20;;;9.53;;
9304;SDS011;4690;52.422;13.486;2024-02-21T05:20:18;28.20;;;10.63;;
9304;SDS011;4690;52.422;13.486;2024-02-21T05:22:44;26.83;;;10.47;;
9304;SDS011;4690;52.422;13.486;2024-02-21T05:25:09;23.03;;;10.10;;
9304;SDS011;4690;52.422;13.486;2024-02-21T05:27:35;22.57;;;10.03;;
9304;SDS011;4690;52.422;13.486;2024-02-21T05:30:03;23.17;;;10.17;;
9304;SDS011;4690;52.422;13.486;2024-02-21T05:32:31;34.53;;;12.00;;
9304;SDS011;4690;52.422;13.486;2024-02-21T05:34:57;25.87;;;10.23;;
9304;SDS011;4690;52.422;13.486;2024-02-21T05:37:23;24.93;;;10.47;;
9304;SDS011;4690;52.422;13.486;2024-02-21T05:39:49;25.70;;;9.60;;
9304;SDS011;4690;52.422;13.486;2024-02-21T05:42:14;23.83;;;9.53;;
9304;SDS011;4690;52.422;13.486;2024-02-21T05:44:40;27.83;;;10.60;;
9304;SDS011;4690;52.422;13.486;2024-02-21T05:47:06;25.00;;;11.00;;
9304;SDS011;4690;52.422;13.486;2024-02-21T05:49:35;30.07;;;11.43;;
9304;SDS011;4690;52.422;13.486;2024-02-21T05:52:01;25.60;;;10.93;;
9304;SDS011;4690;52.422;13.486;2024-02-21T05:54:27;30.53;;;11.07;;
9304;SDS011;4690;52.422;13.486;2024-02-21T05:56:53;20.37;;;9.97;;
9304;SDS011;4690;52.422;13.486;2024-02-21T05:59:18;25.17;;;10.33;;
9304;SDS011;4690;52.422;13.486;2024-02-21T06:01:44;25.43;;;10.70;;
9304;SDS011;4690;52.422;13.486;2024-02-21T06:04:10;23.13;;;11.30;;
9304;SDS011;4690;52.422;13.486;2024-02-21T06:06:36;22.40;;;10.37;;
9304;SDS011;4690;52.422;13.486;2024-02-21T06:09:01;27.10;;;10.93;;
9304;SDS011;4690;52.422;13.486;2024-02-21T06:11:28;32.20;;;11.77;;
9304;SDS011;4690;52.422;13.486;2024-02-21T06:13:54;31.13;;;12.00;;
9304;SDS011;4690;52.422;13.486;2024-02-21T06:16:20;31.93;;;11.40;;
9304;SDS011;4690;52.422;13.486;2024-02-21T06:18:46;26.87;;;11.63;;
9304;SDS011;4690;52.422;13.486;2024-02-21T06:21:11;28.57;;;11.10;;
9304;SDS011;4690;52.422;13.486;2024-02-21T06:23:37;29.60;;;12.17;;
9304;SDS011;4690;52.422;13.486;2024-02-21T06:26:03;19.93;;;10.57;;
9304;SDS011;4690;52.422;13.486;2024-02-21T06:28:29;24.13;;;11.00;;
9304;SDS011;4690;52.422;13.486;2024-02-21T06:30:54;25.13;;;10.70;;
9304;SDS011;4690;52.422;13.486;2024-02-21T06:33:20;27.70;;;11.30;;
9304;SDS011;4690;52.422;13.486;2024-02-21T06:35:49;21.80;;;10.43;;
9304;SDS011;4690;52.422;13.486;2024-02-21T06:38:18;24.63;;;10.60;;
9304;SDS011;4690;52.422;13.486;2024-02-21T06:40:44;28.80;;;12.00;;
9304;SDS011;4690;52.422;13.486;2024-02-21T06:43:14;29.17;;;11.77;;
9304;SDS011;4690;52.422;13.486;2024-02-21T06:45:43;28.70;;;11.33;;
9304;SDS011;4690;52.422;13.486;2024-02-21T06:48:12;19.50;;;10.60;;
9304;SDS011;4690;52.422;13.486;2024-02-21T06:50:38;25.60;;;11.60;;
9304;SDS011;4690;52.422;13.486;2024-02-21T06:53:04;24.87;;;11.40;;
9304;SDS011;4690;52.422;13.486;2024-02-21T06:55:29;26.73;;;11.40;;
9304;SDS011;4690;52.422;13.486;2024-02-21T06:57:55;26.13;;;11.57;;
9304;SDS011;4690;52.422;13.486;2024-02-21T07:00:21;22.83;;;11.20;;
9304;SDS011;4690;52.422;13.486;2024-02-21T07:02:47;22.47;;;10.57;;
9304;SDS011;4690;52.422;13.486;2024-02-21T07:05:13;23.67;;;11.57;;
9304;SDS011;4690;52.422;13.486;2024-02-21T07:07:39;25.80;;;10.73;;
9304;SDS011;4690;52.422;13.486;2024-02-21T07:10:05;27.50;;;11.63;;
9304;SDS011;4690;52.422;13.486;2024-02-21T07:12:32;23.67;;;10.80;;
9304;SDS011;4690;52.422;13.486;2024-02-21T07:15:00;22.60;;;10.60;;
9304;SDS011;4690;52.422;13.486;2024-02-21T07:17:25;25.73;;;11.20;;
9304;SDS011;4690;52.422;13.486;2024-02-21T07:19:51;23.90;;;11.83;;
9304;SDS011;4690;52.422;13.486;2024-02-21T07:22:17;18.73;;;10.03;;
9304;SDS011;4690;52.422;13.486;2024-02-21T07:24:43;19.80;;;10.20;;
9304;SDS011;4690;52.422;13.486;2024-02-21T07:27:08;17.57;;;9.97;;
9304;SDS011;4690;52.422;13.486;2024-02-21T07:29:34;21.40;;;10.27;;
9304;SDS011;4690;52.422;13.486;2024-02-21T07:32:00;21.20;;;9.70;;
9304;SDS011;4690;52.422;13.486;2024-02-21T07:34:27;18.60;;;10.00;;
9304;SDS011;4690;52.422;13.486;2024-02-21T07:36:53;18.37;;;10.07;;
9304;SDS011;4690;52.422;13.486;2024-02-21T07:39:18;20.17;;;9.97;;
9304;SDS011;4690;52.422;13.486;2024-02-21T07:41:44;20.13;;;9.83;;
9304;SDS011;4690;52.422;13.486;2024-02-21T07:44:11;23.23;;;9.77;;
9304;SDS011;4690;52.422;13.486;2024-02-21T07:46:37;24.80;;;11.07;;
9304;SDS011;4690;52.422;13.486;2024-02-21T07:49:02;21.17;;;10.30;;
9304;SDS011;4690;52.422;13.486;2024-02-21T07:51:28;23.27;;;10.60;;
9304;SDS011;4690;52.422;13.486;2024-02-21T07:53:54;23.43;;;10.40;;
9304;SDS011;4690;52.422;13.486;2024-02-21T07:56:20;19.87;;;9.90;;
9304;SDS011;4690;52.422;13.486;2024-02-21T07:58:46;16.07;;;8.87;;
9304;SDS011;4690;52.422;13.486;2024-02-21T08:01:17;23.27;;;10.60;;
9304;SDS011;4690;52.422;13.486;2024-02-21T08:03:47;21.27;;;9.53;;
9304;SDS011;4690;52.422;13.486;2024-02-21T08:06:13;16.50;;;9.13;;
9304;SDS011;4690;52.422;13.486;2024-02-21T08:08:39;17.70;;;8.80;;
9304;SDS011;4690;52.422;13.486;2024-02-21T08:11:05;17.47;;;8.73;;
9304;SDS011;4690;52.422;13.486;2024-02-21T08:13:31;20.40;;;9.43;;
9304;SDS011;4690;52.422;13.486;2024-02-21T08:15:56;18.13;;;8.90;;
9304;SDS011;4690;52.422;13.486;2024-02-21T08:18:22;17.33;;;8.80;;
9304;SDS011;4690;52.422;13.486;2024-02-21T08:20:48;16.23;;;9.10;;
9304;SDS011;4690;52.422;13.486;2024-02-21T08:23:15;17.73;;;9.60;;
9304;SDS011;4690;52.422;13.486;2024-02-21T08:25:42;17.90;;;9.23;;
9304;SDS011;4690;52.422;13.486;2024-02-21T08:28:08;14.33;;;8.83;;
9304;SDS011;4690;52.422;13.486;2024-02-21T08:30:36;16.77;;;9.00;;
9304;SDS011;4690;52.422;13.486;2024-02-21T08:33:01;17.70;;;9.27;;
9304;SDS011;4690;52.422;13.486;2024-02-21T08:35:28;16.33;;;8.77;;
9304;SDS011;4690;52.422;13.486;2024-02-21T08:37:54;17.43;;;8.90;;
9304;SDS011;4690;52.422;13.486;2024-02-21T08:40:20;18.97;;;9.03;;
9304;SDS011;4690;52.422;13.486;2024-02-21T08:42:46;15.57;;;8.77;;
9304;SDS011;4690;52.422;13.486;2024-02-21T08:45:12;16.00;;;9.30;;
9304;SDS011;4690;52.422;13.486;2024-02-21T08:47:41;20.07;;;9.00;;
9304;SDS011;4690;52.422;13.486;2024-02-21T08:50:07;14.90;;;8.73;;
9304;SDS011;4690;52.422;13.486;2024-02-21T08:52:37;18.30;;;8.93;;
9304;SDS011;4690;52.422;13.486;2024-02-21T08:55:03;17.37;;;8.63;;
9304;SDS011;4690;52.422;13.486;2024-02-21T08:57:29;17.13;;;8.67;;
9304;SDS011;4690;52.422;13.486;2024-02-21T09:00:01;18.57;;;9.30;;
9304;SDS011;4690;52.422;13.486;2024-02-21T09:02:34;16.13;;;9.57;;
9304;SDS011;4690;52.422;13.486;2024-02-21T09:05:03;20.17;;;8.87;;
9304;SDS011;4690;52.422;13.486;2024-02-21T09:07:30;13.57;;;8.23;;
9304;SDS011;4690;52.422;13.486;2024-02-21T09:09:56;19.07;;;8.77;;
9304;SDS011;4690;52.422;13.486;2024-02-21T09:12:21;16.40;;;9.43;;
9304;SDS011;4690;52.422;13.486;2024-02-21T09:14:47;15.73;;;8.33;;
9304;SDS011;4690;52.422;13.486;2024-02-21T09:17:15;15.97;;;8.93;;
9304;SDS011;4690;52.422;13.486;2024-02-21T09:19:45;13.53;;;7.57;;
9304;SDS011;4690;52.422;13.486;2024-02-21T09:22:13;19.40;;;8.73;;
9304;SDS011;4690;52.422;13.486;2024-02-21T09:24:39;15.97;;;8.47;;
9304;SDS011;4690;52.422;13.486;2024-02-21T09:27:05;13.47;;;8.47;;
9304;SDS011;4690;52.422;13.486;2024-02-21T09:29:31;17.57;;;8.13;;
9304;SDS011;4690;52.422;13.486;2024-02-21T09:31:58;16.53;;;8.60;;
9304;SDS011;4690;52.422;13.486;2024-02-21T09:34:24;14.80;;;8.87;;
9304;SDS011;4690;52.422;13.486;2024-02-21T09:36:50;15.77;;;9.60;;
9304;SDS011;4690;52.422;13.486;2024-02-21T09:39:16;15.97;;;9.77;;
9304;SDS011;4690;52.422;13.486;2024-02-21T09:41:45;14.40;;;9.27;;
9304;SDS011;4690;52.422;13.486;2024-02-21T09:44:20;11.47;;;8.30;;
9304;SDS011;4690;52.422;13.486;2024-02-21T09:47:03;15.13;;;8.47;;
9304;SDS011;4690;52.422;13.486;2024-02-21T09:49:34;16.67;;;9.10;;
9304;SDS011;4690;52.422;13.486;2024-02-21T09:52:04;16.13;;;9.07;;
9304;SDS011;4690;52.422;13.486;2024-02-21T09:54:32;14.10;;;8.77;;
9304;SDS011;4690;52.422;13.486;2024-02-21T09:57:08;17.00;;;9.27;;
9304;SDS011;4690;52.422;13.486;2024-02-21T09:59:34;17.13;;;9.17;;
9304;SDS011;4690;52.422;13.486;2024-02-21T10:02:00;16.03;;;9.07;;
9304;SDS011;4690;52.422;13.486;2024-02-21T10:04:26;13.57;;;8.80;;
9304;SDS011;4690;52.422;13.486;2024-02-21T10:06:55;16.20;;;9.00;;
9304;SDS011;4690;52.422;13.486;2024-02-21T10:09:24;15.07;;;8.67;;
9304;SDS011;4690;52.422;13.486;2024-02-21T10:11:53;14.13;;;9.47;;
9304;SDS011;4690;52.422;13.486;2024-02-21T10:14:20;17.43;;;9.40;;
9304;SDS011;4690;52.422;13.486;2024-02-21T10:16:55;15.67;;;9.53;;
9304;SDS011;4690;52.422;13.486;2024-02-21T10:19:26;16.63;;;9.63;;
9304;SDS011;4690;52.422;13.486;2024-02-21T10:22:24;14.93;;;9.53;;
9304;SDS011;4690;52.422;13.486;2024-02-21T10:24:45;13.43;;;8.93;;
9304;SDS011;4690;52.422;13.486;2024-02-21T10:27:11;14.53;;;9.10;;
9304;SDS011;4690;52.422;13.486;2024-02-21T10:29:37;15.17;;;9.67;;
9304;SDS011;4690;52.422;13.486;2024-02-21T10:34:34;15.63;;;9.40;;
9304;SDS011;4690;52.422;13.486;2024-02-21T10:37:04;14.27;;;9.43;;
9304;SDS011;4690;52.422;13.486;2024-02-21T10:39:43;13.07;;;8.97;;
9304;SDS011;4690;52.422;13.486;2024-02-21T10:42:12;13.30;;;8.33;;
9304;SDS011;4690;52.422;13.486;2024-02-21T10:44:44;14.20;;;8.40;;
9304;SDS011;4690;52.422;13.486;2024-02-21T10:47:16;11.60;;;8.20;;
9304;SDS011;4690;52.422;13.486;2024-02-21T10:49:46;13.37;;;8.67;;
9304;SDS011;4690;52.422;13.486;2024-02-21T10:55:21;17.30;;;8.47;;
9304;SDS011;4690;52.422;13.486;2024-02-21T10:58:00;13.33;;;8.43;;
9304;SDS011;4690;52.422;13.486;2024-02-21T11:00:26;10.27;;;7.50;;
9304;SDS011;4690;52.422;13.486;2024-02-21T11:02:55;12.37;;;7.77;;
9304;SDS011;4690;52.422;13.486;2024-02-21T11:05:24;10.60;;;7.57;;
9304;SDS011;4690;52.422;13.486;2024-02-21T11:07:50;11.50;;;7.77;;
9304;SDS011;4690;52.422;13.486;2024-02-21T11:10:20;11.27;;;8.03;;
9304;SDS011;4690;52.422;13.486;2024-02-21T11:12:52;11.20;;;7.33;;
9304;SDS011;4690;52.422;13.486;2024-02-21T11:15:24;13.10;;;7.47;;
9304;SDS011;4690;52.422;13.486;2024-02-21T11:17:56;12.80;;;7.70;;
9304;SDS011;4690;52.422;13.486;2024-02-21T11:20:31;15.03;;;7.67;;
9304;SDS011;4690;52.422;13.486;2024-02-21T11:23:02;13.87;;;7.63;;
9304;SDS011;4690;52.422;13.486;2024-02-21T11:25:28;10.37;;;7.00;;
9304;SDS011;4690;52.422;13.486;2024-02-21T11:27:59;12.87;;;7.03;;
9304;SDS011;4690;52.422;13.486;2024-02-21T11:30:35;7.60;;;5.93;;
9304;SDS011;4690;52.422;13.486;2024-02-21T11:33:03;9.07;;;6.67;;
9304;SDS011;4690;52.422;13.486;2024-02-21T11:35:34;10.40;;;6.83;;
9304;SDS011;4690;52.422;13.486;2024-02-21T11:38:11;11.20;;;7.53;;
9304;SDS011;4690;52.422;13.486;2024-02-21T11:40:45;12.67;;;7.83;;
9304;SDS011;4690;52.422;13.486;2024-02-21T11:43:11;11.70;;;6.20;;
9304;SDS011;4690;52.422;13.486;2024-02-21T11:45:37;10.45;;;6.82;;
9304;SDS011;4690;52.422;13.486;2024-02-21T11:48:05;7.27;;;5.80;;
9304;SDS011;4690;52.422;13.486;2024-02-21T11:50:32;9.05;;;6.13;;
9304;SDS011;4690;52.422;13.486;2024-02-21T11:53:00;8.85;;;6.07;;
9304;SDS011;4690;52.422;13.486;2024-02-21T11:55:26;9.40;;;6.07;;
9304;SDS011;4690;52.422;13.486;2024-02-21T11:57:53;7.55;;;5.22;;
9304;SDS011;4690;52.422;13.486;2024-02-21T12:00:18;6.93;;;5.53;;
9304;SDS011;4690;52.422;13.486;2024-02-21T12:02:49;7.50;;;4.93;;
9304;SDS011;4690;52.422;13.486;2024-02-21T12:05:15;9.20;;;5.27;;
9304;SDS011;4690;52.422;13.486;2024-02-21T12:07:44;8.67;;;5.30;;
9304;SDS011;4690;52.422;13.486;2024-02-21T12:10:11;8.30;;;4.68;;
9304;SDS011;4690;52.422;13.486;2024-02-21T12:12:38;9.57;;;5.20;;
9304;SDS011;4690;52.422;13.486;2024-02-21T12:15:05;7.90;;;5.05;;
9304;SDS011;4690;52.422;13.486;2024-02-21T12:17:33;5.35;;;4.32;;
9304;SDS011;4690;52.422;13.486;2024-02-21T12:20:00;6.10;;;4.45;;
9304;SDS011;4690;52.422;13.486;2024-02-21T12:22:30;10.77;;;4.57;;
9304;SDS011;4690;52.422;13.486;2024-02-21T12:25:00;6.95;;;4.47;;
9304;SDS011;4690;52.422;13.486;2024-02-21T12:27:51;6.57;;;4.03;;
9304;SDS011;4690;52.422;13.486;2024-02-21T12:30:17;5.10;;;3.70;;
9304;SDS011;4690;52.422;13.486;2024-02-21T12:32:44;7.40;;;3.85;;
9304;SDS011;4690;52.422;13.486;2024-02-21T12:35:13;6.50;;;4.03;;
9304;SDS011;4690;52.422;13.486;2024-02-21T12:37:39;5.88;;;4.05;;
9304;SDS011;4690;52.422;13.486;2024-02-21T12:40:05;4.68;;;3.55;;
9304;SDS011;4690;52.422;13.486;2024-02-21T12:42:33;7.80;;;4.40;;
9304;SDS011;4690;52.422;13.486;2024-02-21T12:44:59;5.35;;;4.50;;
9304;SDS011;4690;52.422;13.486;2024-02-21T12:47:25;7.22;;;4.70;;
9304;SDS011;4690;52.422;13.486;2024-02-21T12:49:52;9.18;;;5.60;;
9304;SDS011;4690;52.422;13.486;2024-02-21T12:52:18;8.80;;;5.53;;
9304;SDS011;4690;52.422;13.486;2024-02-21T12:54:44;6.77;;;5.03;;
9304;SDS011;4690;52.422;13.486;2024-02-21T12:57:09;7.73;;;5.10;;
9304;SDS011;4690;52.422;13.486;2024-02-21T12:59:35;9.87;;;5.20;;
9304;SDS011;4690;52.422;13.486;2024-02-21T13:02:01;8.20;;;5.33;;
9304;SDS011;4690;52.422;13.486;2024-02-21T13:04:27;9.87;;;5.47;;
9304;SDS011;4690;52.422;13.486;2024-02-21T13:06:53;9.60;;;5.40;;
9304;SDS011;4690;52.422;13.486;2024-02-21T13:09:20;9.43;;;5.40;;
9304;SDS011;4690;52.422;13.486;2024-02-21T13:11:46;8.77;;;5.33;;
9304;SDS011;4690;52.422;13.486;2024-02-21T13:14:12;8.30;;;5.20;;
9304;SDS011;4690;52.422;13.486;2024-02-21T13:16:38;9.63;;;5.57;;
9304;SDS011;4690;52.422;13.486;2024-02-21T13:19:07;8.67;;;5.23;;
9304;SDS011;4690;52.422;13.486;2024-02-21T13:21:34;9.17;;;5.67;;
9304;SDS011;4690;52.422;13.486;2024-02-21T13:24:00;12.33;;;5.73;;
9304;SDS011;4690;52.422;13.486;2024-02-21T13:26:26;9.33;;;5.73;;
9304;SDS011;4690;52.422;13.486;2024-02-21T13:28:52;7.20;;;5.20;;
9304;SDS011;4690;52.422;13.486;2024-02-21T13:31:19;7.60;;;5.30;;
9304;SDS011;4690;52.422;13.486;2024-02-21T13:33:46;6.77;;;5.10;;
9304;SDS011;4690;52.422;13.486;2024-02-21T13:36:11;8.00;;;5.17;;
9304;SDS011;4690;52.422;13.486;2024-02-21T13:38:37;10.37;;;5.17;;
9304;SDS011;4690;52.422;13.486;2024-02-21T13:41:04;8.17;;;4.77;;
9304;SDS011;4690;52.422;13.486;2024-02-21T13:43:31;7.93;;;4.77;;
9304;SDS011;4690;52.422;13.486;2024-02-21T13:45:58;7.67;;;5.13;;
9304;SDS011;4690;52.422;13.486;2024-02-21T13:48:29;7.70;;;4.93;;
9304;SDS011;4690;52.422;13.486;2024-02-21T13:50:56;7.30;;;4.97;;
9304;SDS011;4690;52.422;13.486;2024-02-21T13:53:22;6.60;;;4.40;;
9304;SDS011;4690;52.422;13.486;2024-02-21T13:55:48;7.70;;;4.60;;
9304;SDS011;4690;52.422;13.486;2024-02-21T13:58:15;7.63;;;4.97;;
9304;SDS011;4690;52.422;13.486;2024-02-21T14:00:41;10.70;;;4.57;;
9304;SDS011;4690;52.422;13.486;2024-02-21T14:03:07;6.20;;;4.27;;
9304;SDS011;4690;52.422;13.486;2024-02-21T14:05:33;7.03;;;4.27;;
9304;SDS011;4690;52.422;13.486;2024-02-21T14:07:58;9.23;;;4.57;;
9304;SDS011;4690;52.422;13.486;2024-02-21T14:10:24;7.17;;;4.40;;
9304;SDS011;4690;52.422;13.486;2024-02-21T14:12:50;8.57;;;4.43;;
9304;SDS011;4690;52.422;13.486;2024-02-21T14:15:16;11.50;;;4.57;;
9304;SDS011;4690;52.422;13.486;2024-02-21T14:17:42;6.77;;;4.13;;
9304;SDS011;4690;52.422;13.486;2024-02-21T14:20:08;6.63;;;3.97;;
9304;SDS011;4690;52.422;13.486;2024-02-21T14:22:35;10.80;;;4.53;;
9304;SDS011;4690;52.422;13.486;2024-02-21T14:25:02;7.73;;;4.50;;
9304;SDS011;4690;52.422;13.486;2024-02-21T14:27:31;6.50;;;4.07;;
9304;SDS011;4690;52.422;13.486;2024-02-21T14:29:57;7.80;;;4.10;;
9304;SDS011;4690;52.422;13.486;2024-02-21T14:32:23;8.23;;;4.03;;
9304;SDS011;4690;52.422;13.486;2024-02-21T14:34:49;8.37;;;4.57;;
9304;SDS011;4690;52.422;13.486;2024-02-21T14:37:15;5.67;;;3.77;;
9304;SDS011;4690;52.422;13.486;2024-02-21T14:39:41;8.00;;;4.23;;
9304;SDS011;4690;52.422;13.486;2024-02-21T14:42:07;7.23;;;4.20;;
9304;SDS011;4690;52.422;13.486;2024-02-21T14:44:36;6.63;;;4.23;;
9304;SDS011;4690;52.422;13.486;2024-02-21T14:47:02;6.53;;;4.00;;
9304;SDS011;4690;52.422;13.486;2024-02-21T14:49:31;6.70;;;4.30;;
9304;SDS011;4690;52.422;13.486;2024-02-21T14:51:57;5.27;;;3.83;;
9304;SDS011;4690;52.422;13.486;2024-02-21T14:54:22;7.97;;;4.13;;
9304;SDS011;4690;52.422;13.486;2024-02-21T14:56:48;6.80;;;3.70;;
9304;SDS011;4690;52.422;13.486;2024-02-21T14:59:15;11.97;;;4.00;;
9304;SDS011;4690;52.422;13.486;2024-02-21T15:01:41;8.57;;;4.63;;